createdAt,value
2023-02-22T00:01:00.043Z,3.68
2023-02-22T00:01:59.975Z,3.68
2023-02-22T00:03:00.192Z,3.68
2023-02-22T00:03:59.929Z,3.81
2023-02-22T00:04:59.914Z,3.68
2023-02-22T00:05:59.892Z,3.73
2023-02-22T00:06:59.871Z,3.76
2023-02-22T00:07:59.858Z,3.78
2023-02-22T00:08:59.857Z,3.66
2023-02-22T00:09:59.817Z,3.70
2023-02-22T00:10:59.801Z,3.73
2023-02-22T00:11:59.783Z,3.76
2023-02-22T00:12:59.765Z,3.74
2023-02-22T00:13:59.749Z,3.77
2023-02-22T00:14:59.731Z,3.71
2023-02-22T00:15:59.772Z,3.82
2023-02-22T00:16:59.976Z,3.74
2023-02-22T00:17:59.679Z,3.74
2023-02-22T00:18:59.672Z,3.74
2023-02-22T00:19:59.637Z,3.68
2023-02-22T00:20:59.622Z,3.68
2023-02-22T00:21:59.610Z,3.74
2023-02-22T00:22:59.590Z,3.67
2023-02-22T00:23:59.594Z,3.73
2023-02-22T00:24:59.553Z,3.66
2023-02-22T00:25:59.536Z,3.63
2023-02-22T00:26:59.521Z,3.66
2023-02-22T00:27:59.499Z,3.55
2023-02-22T00:28:59.478Z,3.64
2023-02-22T00:29:59.463Z,3.64
2023-02-22T00:30:59.442Z,3.55
2023-02-22T00:31:59.543Z,3.58
2023-02-22T00:32:59.406Z,3.63
2023-02-22T00:33:59.389Z,3.64
2023-02-22T00:34:59.400Z,3.58
2023-02-22T00:35:59.367Z,3.58
2023-02-22T00:36:59.339Z,3.55
2023-02-22T00:37:59.318Z,3.49
2023-02-22T00:38:59.299Z,3.53
2023-02-22T00:39:59.275Z,3.41
2023-02-22T00:40:59.263Z,3.48
2023-02-22T00:41:59.314Z,3.48
2023-02-22T00:42:59.227Z,3.50
2023-02-22T00:43:59.222Z,3.56
2023-02-22T00:44:59.201Z,3.66
2023-02-22T00:45:59.196Z,3.63
2023-02-22T00:46:59.154Z,3.59
2023-02-22T00:47:59.135Z,3.64
2023-02-22T00:48:59.120Z,3.58
2023-02-22T00:49:59.103Z,3.64
2023-02-22T00:50:59.090Z,3.58
2023-02-22T00:51:59.071Z,3.55
2023-02-22T00:52:59.053Z,3.64
2023-02-22T00:53:59.027Z,3.61
2023-02-22T00:54:59.012Z,3.61
2023-02-22T00:55:58.987Z,3.55
2023-02-22T00:56:58.985Z,3.56
2023-02-22T00:57:58.954Z,3.52
2023-02-22T00:58:58.948Z,3.56
2023-02-22T00:59:58.915Z,3.50
2023-02-22T01:00:58.933Z,3.37
2023-02-22T01:01:58.919Z,3.41
2023-02-22T01:02:58.878Z,3.41
2023-02-22T01:03:58.846Z,3.36
2023-02-22T01:04:58.826Z,3.30
2023-02-22T01:05:58.863Z,3.30
2023-02-22T01:06:58.797Z,3.27
2023-02-22T01:07:58.780Z,3.26
2023-02-22T01:08:58.756Z,3.21
2023-02-22T01:09:58.739Z,3.13
2023-02-22T01:10:58.721Z,3.11
2023-02-22T01:11:58.704Z,3.15
2023-02-22T01:12:58.682Z,3.08
2023-02-22T01:13:58.665Z,3.01
2023-02-22T01:14:58.644Z,3.12
2023-02-22T01:15:58.633Z,3.05
2023-02-22T01:16:58.644Z,3.01
2023-02-22T01:17:58.594Z,2.94
2023-02-22T01:18:58.572Z,3.01
2023-02-22T01:19:58.552Z,3.00
2023-02-22T01:20:58.534Z,3.03
2023-02-22T01:21:58.520Z,2.94
2023-02-22T01:22:58.512Z,2.91
2023-02-22T01:23:58.479Z,2.91
2023-02-22T01:24:58.462Z,2.93
2023-02-22T01:25:58.447Z,3.05
2023-02-22T01:26:58.433Z,3.09
2023-02-22T01:27:58.435Z,3.03
2023-02-22T01:28:58.393Z,3.00
2023-02-22T01:29:58.369Z,3.06
2023-02-22T01:30:58.450Z,3.03
2023-02-22T01:31:58.346Z,3.06
2023-02-22T01:32:58.316Z,3.05
2023-02-22T01:33:58.296Z,3.06
2023-02-22T01:34:58.293Z,3.01
2023-02-22T01:35:58.261Z,2.98
2023-02-22T01:36:58.250Z,2.87
2023-02-22T01:37:58.329Z,2.87
2023-02-22T01:38:58.207Z,2.88
2023-02-22T01:39:58.191Z,2.87
2023-02-22T01:40:58.170Z,2.95
2023-02-22T01:41:58.153Z,2.95
2023-02-22T01:42:58.134Z,2.91
2023-02-22T01:43:58.113Z,2.87
2023-02-22T01:44:58.098Z,2.75
2023-02-22T01:45:58.117Z,2.75
2023-02-22T01:46:58.061Z,2.77
2023-02-22T01:47:58.044Z,2.73
2023-02-22T01:48:58.019Z,2.76
2023-02-22T01:49:57.999Z,2.75
2023-02-22T01:50:57.983Z,2.79
2023-02-22T01:51:57.987Z,2.77
2023-02-22T01:52:57.946Z,2.75
2023-02-22T01:53:57.925Z,2.77
2023-02-22T01:54:57.917Z,2.73
2023-02-22T01:55:57.888Z,2.80
2023-02-22T01:56:57.882Z,2.72
2023-02-22T01:57:57.877Z,2.70
2023-02-22T01:58:57.838Z,2.79
2023-02-22T01:59:57.818Z,2.82
2023-02-22T02:00:57.814Z,2.83
2023-02-22T02:01:57.781Z,2.83
2023-02-22T02:02:57.806Z,2.83
2023-02-22T02:03:57.766Z,2.97
2023-02-22T02:04:57.759Z,2.88
2023-02-22T02:05:57.713Z,2.98
2023-02-22T02:06:57.693Z,2.83
2023-02-22T02:07:57.669Z,2.88
2023-02-22T02:08:57.673Z,2.90
2023-02-22T02:09:57.655Z,2.90
2023-02-22T02:10:57.621Z,2.91
2023-02-22T02:11:57.610Z,2.90
2023-02-22T02:12:57.592Z,2.90
2023-02-22T02:13:57.561Z,2.94
2023-02-22T02:14:57.540Z,2.85
2023-02-22T02:15:57.528Z,2.91
2023-02-22T02:16:57.515Z,2.88
2023-02-22T02:17:57.487Z,2.93
2023-02-22T02:18:57.470Z,2.88
2023-02-22T02:19:57.458Z,2.82
2023-02-22T02:20:57.434Z,2.90
2023-02-22T02:21:57.413Z,2.95
2023-02-22T02:22:57.405Z,2.94
2023-02-22T02:23:57.395Z,2.90
2023-02-22T02:24:57.361Z,2.87
2023-02-22T02:25:57.342Z,2.85
2023-02-22T02:26:57.351Z,2.94
2023-02-22T02:27:57.302Z,2.93
2023-02-22T02:28:57.292Z,2.95
2023-02-22T02:29:57.269Z,2.88
2023-02-22T02:30:57.261Z,2.88
2023-02-22T02:31:57.286Z,2.83
2023-02-22T02:32:57.227Z,2.93
2023-02-22T02:33:57.196Z,2.83
2023-02-22T02:34:57.174Z,2.94
2023-02-22T02:35:57.163Z,2.83
2023-02-22T02:36:57.150Z,2.85
2023-02-22T02:37:57.128Z,2.90
2023-02-22T02:38:57.213Z,2.98
2023-02-22T02:39:57.114Z,2.97
2023-02-22T02:40:57.085Z,2.88
2023-02-22T02:41:57.072Z,2.91
2023-02-22T02:42:57.032Z,2.98
2023-02-22T02:43:57.012Z,2.97
2023-02-22T02:44:56.993Z,2.98
2023-02-22T02:45:56.974Z,3.03
2023-02-22T02:46:56.991Z,2.98
2023-02-22T02:47:56.939Z,3.03
2023-02-22T02:48:57.005Z,3.06
2023-02-22T02:49:56.967Z,3.03
2023-02-22T02:50:56.882Z,3.06
2023-02-22T02:51:56.862Z,3.00
2023-02-22T02:52:56.853Z,3.00
2023-02-22T02:53:56.832Z,3.00
2023-02-22T02:54:56.810Z,3.01
2023-02-22T02:55:56.788Z,2.97
2023-02-22T02:56:56.799Z,2.94
2023-02-22T02:57:56.760Z,2.97
2023-02-22T02:58:56.793Z,2.97
2023-02-22T02:59:56.740Z,3.01
2023-02-22T03:00:56.699Z,2.94
2023-02-22T03:01:56.693Z,3.05
2023-02-22T03:02:56.660Z,3.06
2023-02-22T03:03:56.640Z,3.03
2023-02-22T03:04:56.639Z,3.05
2023-02-22T03:05:56.606Z,3.00
2023-02-22T03:06:56.599Z,3.01
2023-02-22T03:07:56.579Z,2.91
2023-02-22T03:08:56.553Z,2.83
2023-02-22T03:09:56.558Z,2.90
2023-02-22T03:10:56.524Z,2.90
2023-02-22T03:11:56.503Z,2.85
2023-02-22T03:12:56.475Z,2.82
2023-02-22T03:13:56.512Z,2.87
2023-02-22T03:14:56.447Z,2.85
2023-02-22T03:15:56.430Z,2.90
2023-02-22T03:16:56.405Z,2.87
2023-02-22T03:17:56.388Z,2.83
2023-02-22T03:18:56.364Z,2.95
2023-02-22T03:19:56.351Z,2.97
2023-02-22T03:20:56.331Z,2.95
2023-02-22T03:21:56.313Z,3.00
2023-02-22T03:22:56.296Z,2.97
2023-02-22T03:23:56.289Z,3.01
2023-02-22T03:24:56.265Z,2.98
2023-02-22T03:25:56.246Z,2.98
2023-02-22T03:26:56.225Z,3.03
2023-02-22T03:27:56.211Z,2.97
2023-02-22T03:28:56.205Z,3.03
2023-02-22T03:29:56.169Z,3.09
2023-02-22T03:30:56.171Z,3.06
2023-02-22T03:31:56.151Z,3.09
2023-02-22T03:32:56.115Z,3.12
2023-02-22T03:33:56.092Z,3.15
2023-02-22T03:34:56.073Z,3.12
2023-02-22T03:35:56.091Z,3.11
2023-02-22T03:36:56.052Z,3.12
2023-02-22T03:37:56.020Z,3.12
2023-02-22T03:38:56.010Z,3.15
2023-02-22T03:39:55.988Z,3.12
2023-02-22T03:40:55.962Z,3.03
2023-02-22T03:41:55.946Z,3.11
2023-02-22T03:42:55.942Z,3.06
2023-02-22T03:43:55.910Z,3.12
2023-02-22T03:44:55.900Z,3.11
2023-02-22T03:45:55.875Z,3.01
2023-02-22T03:46:55.862Z,3.03
2023-02-22T03:47:55.835Z,2.94
2023-02-22T03:48:55.819Z,3.03
2023-02-22T03:49:55.822Z,3.05
2023-02-22T03:50:55.804Z,3.09
2023-02-22T03:51:55.765Z,3.09
2023-02-22T03:52:55.817Z,3.05
2023-02-22T03:53:55.725Z,3.00
2023-02-22T03:54:55.723Z,3.03
2023-02-22T03:55:55.710Z,2.93
2023-02-22T03:56:55.683Z,3.00
2023-02-22T03:57:55.651Z,2.93
2023-02-22T03:58:55.637Z,3.00
2023-02-22T03:59:55.629Z,2.98
2023-02-22T04:00:55.605Z,3.01
2023-02-22T04:01:55.591Z,3.00
2023-02-22T04:02:55.596Z,2.87
2023-02-22T04:03:55.559Z,2.98
2023-02-22T04:04:55.587Z,2.94
2023-02-22T04:05:55.512Z,2.88
2023-02-22T04:06:55.489Z,2.93
2023-02-22T04:07:55.472Z,2.90
2023-02-22T04:08:55.449Z,2.88
2023-02-22T04:09:55.462Z,2.83
2023-02-22T04:10:55.412Z,2.76
2023-02-22T04:11:55.397Z,2.75
2023-02-22T04:12:55.382Z,2.76
2023-02-22T04:13:55.358Z,2.70
2023-02-22T04:14:55.338Z,2.70
2023-02-22T04:15:55.336Z,2.76
2023-02-22T04:16:55.303Z,2.68
2023-02-22T04:17:55.284Z,2.62
2023-02-22T04:18:55.275Z,2.62
2023-02-22T04:19:55.246Z,2.57
2023-02-22T04:20:55.228Z,2.51
2023-02-22T04:21:55.209Z,2.61
2023-02-22T04:22:55.198Z,2.57
2023-02-22T04:23:55.179Z,2.46
2023-02-22T04:24:55.155Z,2.47
2023-02-22T04:25:55.145Z,2.47
2023-02-22T04:26:55.117Z,2.44
2023-02-22T04:27:55.117Z,2.41
2023-02-22T04:28:55.084Z,2.51
2023-02-22T04:29:55.099Z,2.37
2023-02-22T04:30:55.093Z,2.50
2023-02-22T04:31:55.102Z,2.37
2023-02-22T04:32:55.038Z,2.36
2023-02-22T04:33:55.004Z,2.40
2023-02-22T04:34:54.973Z,2.32
2023-02-22T04:35:54.953Z,2.26
2023-02-22T04:36:54.935Z,2.28
2023-02-22T04:37:54.946Z,2.40
2023-02-22T04:38:54.898Z,2.34
2023-02-22T04:39:54.932Z,2.33
2023-02-22T04:40:54.904Z,2.33
2023-02-22T04:41:54.854Z,2.30
2023-02-22T04:42:54.830Z,2.23
2023-02-22T04:43:54.814Z,2.32
2023-02-22T04:44:54.817Z,2.25
2023-02-22T04:45:54.780Z,2.21
2023-02-22T04:46:54.765Z,2.23
2023-02-22T04:47:54.731Z,2.21
2023-02-22T04:48:54.755Z,2.26
2023-02-22T04:49:54.692Z,2.16
2023-02-22T04:50:54.730Z,2.16
2023-02-22T04:51:54.662Z,2.14
2023-02-22T04:52:54.658Z,2.05
2023-02-22T04:53:54.622Z,2.16
2023-02-22T04:54:54.857Z,2.08
2023-02-22T04:55:54.593Z,1.98
2023-02-22T04:56:54.572Z,2.04
2023-02-22T04:57:54.546Z,1.98
2023-02-22T04:58:54.538Z,2.08
2023-02-22T04:59:54.508Z,2.05
2023-02-22T05:00:54.494Z,2.14
2023-02-22T05:01:54.473Z,2.03
2023-02-22T05:02:54.495Z,2.14
2023-02-22T05:03:54.479Z,2.01
2023-02-22T05:04:54.530Z,2.12
2023-02-22T05:05:54.417Z,2.15
2023-02-22T05:06:55.136Z,2.15
2023-02-22T05:07:54.381Z,2.03
2023-02-22T05:08:54.342Z,2.12
2023-02-22T05:09:54.321Z,2.00
2023-02-22T05:10:54.437Z,1.98
2023-02-22T05:11:54.319Z,2.16
2023-02-22T05:12:54.269Z,2.14
2023-02-22T05:13:54.251Z,2.10
2023-02-22T05:14:54.231Z,2.04
2023-02-22T05:15:54.216Z,2.04
2023-02-22T05:16:54.227Z,2.15
2023-02-22T05:17:54.233Z,2.05
2023-02-22T05:18:54.159Z,2.04
2023-02-22T05:19:54.139Z,2.01
2023-02-22T05:20:54.119Z,1.89
2023-02-22T05:21:54.130Z,1.89
2023-02-22T05:22:54.215Z,1.88
2023-02-22T05:23:54.094Z,1.85
2023-02-22T05:24:54.037Z,1.92
2023-02-22T05:25:54.031Z,1.89
2023-02-22T05:26:53.998Z,1.89
2023-02-22T05:27:53.989Z,1.93
2023-02-22T05:28:53.962Z,1.89
2023-02-22T05:29:53.966Z,1.95
2023-02-22T05:30:53.928Z,1.89
2023-02-22T05:31:54.870Z,2.00
2023-02-22T05:32:53.926Z,2.04
2023-02-22T05:33:53.998Z,1.88
2023-02-22T05:34:53.857Z,2.01
2023-02-22T05:35:53.840Z,2.01
2023-02-22T05:36:53.813Z,2.00
2023-02-22T05:37:53.807Z,2.10
2023-02-22T05:38:53.779Z,1.97
2023-02-22T05:39:53.763Z,1.98
2023-02-22T05:40:53.750Z,2.12
2023-02-22T05:41:53.734Z,2.14
2023-02-22T05:42:53.734Z,2.15
2023-02-22T05:43:53.784Z,2.14
2023-02-22T05:44:53.685Z,2.15
2023-02-22T05:45:53.745Z,2.01
2023-02-22T05:46:53.683Z,2.10
2023-02-22T05:47:53.625Z,2.01
2023-02-22T05:48:53.604Z,2.10
2023-02-22T05:49:53.819Z,2.14
2023-02-22T05:50:53.563Z,2.15
2023-02-22T05:51:53.537Z,2.12
2023-02-22T05:52:53.525Z,2.14
2023-02-22T05:53:53.503Z,2.10
2023-02-22T05:54:53.656Z,2.10
2023-02-22T05:55:53.478Z,2.14
2023-02-22T05:56:53.515Z,2.14
2023-02-22T05:57:53.493Z,2.18
2023-02-22T05:58:53.435Z,2.19
2023-02-22T05:59:53.580Z,2.25
2023-02-22T06:00:53.494Z,2.30
2023-02-22T06:01:53.384Z,2.25
2023-02-22T06:02:53.323Z,2.23
2023-02-22T06:03:53.314Z,2.25
2023-02-22T06:04:53.442Z,2.30
2023-02-22T06:05:53.286Z,2.33
2023-02-22T06:06:53.247Z,2.26
2023-02-22T06:07:53.240Z,2.26
2023-02-22T06:08:53.452Z,2.33
2023-02-22T06:09:53.199Z,2.40
2023-02-22T06:10:53.183Z,2.40
2023-02-22T06:11:54.527Z,2.36
2023-02-22T06:12:53.149Z,2.36
2023-02-22T06:13:53.141Z,2.37
2023-02-22T06:14:53.101Z,2.44
2023-02-22T06:15:53.135Z,2.39
2023-02-22T06:16:53.200Z,2.52
2023-02-22T06:17:53.057Z,2.47
2023-02-22T06:18:53.029Z,2.51
2023-02-22T06:19:53.020Z,2.50
2023-02-22T06:20:53.160Z,2.50
2023-02-22T06:21:52.974Z,2.47
2023-02-22T06:22:52.981Z,2.57
2023-02-22T06:23:52.935Z,2.57
2023-02-22T06:24:54.942Z,2.58
2023-02-22T06:25:52.898Z,2.54
2023-02-22T06:26:53.014Z,2.54
2023-02-22T06:27:53.089Z,2.57
2023-02-22T06:28:52.905Z,2.68
2023-02-22T06:29:52.846Z,2.73
2023-02-22T06:30:52.882Z,2.69
2023-02-22T06:31:52.963Z,2.61
2023-02-22T06:32:52.825Z,2.76
2023-02-22T06:33:52.775Z,2.75
2023-02-22T06:34:52.739Z,2.79
2023-02-22T06:35:52.728Z,2.88
2023-02-22T06:36:52.767Z,2.85
2023-02-22T06:37:52.666Z,2.94
2023-02-22T06:38:52.673Z,2.94
2023-02-22T06:39:52.636Z,3.11
2023-02-22T06:40:52.677Z,3.11
2023-02-22T06:41:52.718Z,3.11
2023-02-22T06:42:52.587Z,3.22
2023-02-22T06:43:52.566Z,3.33
2023-02-22T06:44:52.537Z,3.24
2023-02-22T06:45:52.699Z,3.37
2023-02-22T06:46:52.510Z,3.50
2023-02-22T06:47:52.499Z,3.64
2023-02-22T06:48:52.465Z,3.68
2023-02-22T06:49:52.451Z,3.76
2023-02-22T06:50:52.438Z,3.81
2023-02-22T06:51:52.480Z,3.82
2023-02-22T06:52:52.410Z,3.89
2023-02-22T06:53:52.395Z,4.03
2023-02-22T06:54:52.374Z,4.14
2023-02-22T06:55:52.394Z,4.13
2023-02-22T06:56:52.373Z,4.07
2023-02-22T06:57:52.319Z,4.22
2023-02-22T06:58:52.282Z,4.21
2023-02-22T06:59:52.260Z,4.31
2023-02-22T07:00:52.311Z,4.42
2023-02-22T07:01:52.226Z,4.53
2023-02-22T07:02:52.340Z,4.64
2023-02-22T07:03:52.191Z,4.71
2023-02-22T07:04:52.216Z,4.75
2023-02-22T07:05:52.155Z,4.89
2023-02-22T07:06:52.182Z,4.90
2023-02-22T07:07:52.120Z,5.02
2023-02-22T07:08:52.101Z,5.02
2023-02-22T07:09:52.103Z,5.12
2023-02-22T07:10:52.067Z,5.20
2023-02-22T07:11:52.048Z,5.36
2023-02-22T07:12:52.042Z,5.43
2023-02-22T07:13:52.009Z,5.54
2023-02-22T07:14:52.030Z,5.62
2023-02-22T07:15:51.994Z,5.70
2023-02-22T07:16:51.973Z,5.81
2023-02-22T07:17:52.143Z,5.94
2023-02-22T07:18:52.085Z,6.06
2023-02-22T07:19:51.913Z,6.17
2023-02-22T07:20:51.922Z,6.26
2023-02-22T07:21:51.880Z,6.52
2023-02-22T07:22:51.890Z,6.54
2023-02-22T07:23:51.849Z,6.71
2023-02-22T07:24:51.817Z,6.74
2023-02-22T07:25:51.811Z,6.87
2023-02-22T07:26:51.789Z,7.08
2023-02-22T07:27:51.764Z,7.11
2023-02-22T07:28:51.761Z,7.22
2023-02-22T07:29:51.763Z,7.39
2023-02-22T07:30:51.888Z,7.48
2023-02-22T07:31:51.746Z,7.56
2023-02-22T07:32:51.797Z,7.59
2023-02-22T07:33:51.674Z,7.83
2023-02-22T07:34:51.664Z,7.96
2023-02-22T07:35:51.629Z,8.02
2023-02-22T07:36:51.622Z,8.13
2023-02-22T07:37:54.022Z,8.18
2023-02-22T07:38:51.611Z,8.36
2023-02-22T07:39:51.690Z,8.44
2023-02-22T07:40:51.566Z,8.64
2023-02-22T07:41:51.533Z,8.74
2023-02-22T07:42:51.573Z,8.92
2023-02-22T07:43:51.514Z,9.18
2023-02-22T07:44:51.482Z,9.39
2023-02-22T07:45:51.471Z,9.59
2023-02-22T07:46:51.452Z,9.76
2023-02-22T07:47:51.436Z,10.00
2023-02-22T07:48:51.422Z,10.10
2023-02-22T07:49:51.428Z,10.42
2023-02-22T07:50:51.452Z,10.69
2023-02-22T07:51:51.371Z,10.72
2023-02-22T07:52:51.494Z,11.02
2023-02-22T07:53:51.457Z,11.23
2023-02-22T07:54:51.367Z,11.41
2023-02-22T07:55:51.322Z,11.59
2023-02-22T07:56:51.425Z,11.70
2023-02-22T07:57:51.333Z,11.83
2023-02-22T07:58:51.263Z,11.96
2023-02-22T07:59:51.233Z,12.10
2023-02-22T08:00:51.267Z,12.12
2023-02-22T08:01:51.249Z,12.30
2023-02-22T08:02:51.213Z,12.50
2023-02-22T08:03:51.216Z,12.65
2023-02-22T08:04:51.155Z,12.68
2023-02-22T08:05:51.282Z,12.68
2023-02-22T08:06:51.241Z,12.78
2023-02-22T08:07:51.113Z,12.84
2023-02-22T08:08:51.097Z,12.86
2023-02-22T08:09:51.122Z,12.91
2023-02-22T08:10:51.088Z,12.91
2023-02-22T08:11:51.065Z,12.86
2023-02-22T08:12:51.054Z,12.87
2023-02-22T08:13:51.032Z,12.93
2023-02-22T08:14:51.079Z,12.91
2023-02-22T08:15:50.998Z,12.94
2023-02-22T08:16:51.061Z,12.88
2023-02-22T08:17:50.976Z,12.90
2023-02-22T08:18:50.999Z,12.91
2023-02-22T08:19:50.997Z,13.28
2023-02-22T08:20:50.924Z,13.75
2023-02-22T08:21:50.905Z,14.34
2023-02-22T08:22:50.895Z,14.87
2023-02-22T08:23:50.883Z,15.07
2023-02-22T08:24:50.870Z,15.15
2023-02-22T08:25:50.848Z,15.19
2023-02-22T08:26:50.834Z,15.22
2023-02-22T08:27:50.841Z,15.29
2023-02-22T08:28:50.809Z,15.36
2023-02-22T08:29:50.800Z,15.63
2023-02-22T08:30:50.872Z,16.00
2023-02-22T08:31:50.957Z,16.76
2023-02-22T08:32:50.857Z,17.50
2023-02-22T08:33:50.747Z,18.45
2023-02-22T08:34:50.730Z,19.49
2023-02-22T08:35:50.715Z,20.00
2023-02-22T08:36:50.697Z,20.17
2023-02-22T08:37:50.696Z,20.07
2023-02-22T08:38:50.676Z,19.60
2023-02-22T08:39:50.660Z,19.27
2023-02-22T08:40:50.706Z,18.58
2023-02-22T08:41:50.675Z,17.91
2023-02-22T08:42:50.672Z,17.30
2023-02-22T08:43:50.610Z,16.98
2023-02-22T08:44:50.614Z,16.97
2023-02-22T08:45:50.603Z,16.92
2023-02-22T08:46:50.582Z,16.98
2023-02-22T08:47:50.558Z,17.20
2023-02-22T08:48:50.548Z,17.86
2023-02-22T08:49:50.545Z,18.92
2023-02-22T08:50:50.524Z,20.33
2023-02-22T08:51:50.504Z,21.58
2023-02-22T08:52:50.492Z,22.31
2023-02-22T08:53:50.475Z,22.49
2023-02-22T08:54:50.469Z,22.07
2023-02-22T08:55:50.457Z,21.03
2023-02-22T08:56:50.448Z,20.11
2023-02-22T08:57:50.473Z,19.30
2023-02-22T08:58:50.441Z,18.76
2023-02-22T08:59:50.414Z,18.11
2023-02-22T09:00:50.404Z,17.68
2023-02-22T09:01:50.458Z,17.41
2023-02-22T09:02:50.377Z,17.17
2023-02-22T09:03:50.462Z,17.07
2023-02-22T09:04:50.376Z,17.12
2023-02-22T09:05:50.367Z,17.34
2023-02-22T09:06:50.346Z,17.90
2023-02-22T09:07:50.318Z,18.42
2023-02-22T09:08:50.313Z,19.11
2023-02-22T09:09:50.327Z,19.52
2023-02-22T09:10:50.284Z,19.38
2023-02-22T09:11:52.737Z,19.12
2023-02-22T09:12:50.262Z,18.85
2023-02-22T09:13:50.317Z,18.67
2023-02-22T09:14:50.290Z,18.64
2023-02-22T09:15:50.250Z,18.46
2023-02-22T09:16:50.299Z,18.57
2023-02-22T09:17:50.213Z,18.61
2023-02-22T09:18:50.207Z,18.51
2023-02-22T09:19:50.198Z,18.61
2023-02-22T09:20:50.186Z,18.70
2023-02-22T09:21:50.166Z,19.05
2023-02-22T09:22:50.160Z,19.56
2023-02-22T09:23:50.150Z,20.00
2023-02-22T09:24:50.143Z,20.73
2023-02-22T09:25:50.124Z,21.44
2023-02-22T09:26:50.119Z,22.19
2023-02-22T09:27:50.112Z,22.59
2023-02-22T09:28:50.105Z,22.53
2023-02-22T09:29:50.087Z,22.22
2023-02-22T09:30:50.090Z,22.06
2023-02-22T09:31:50.163Z,21.89
2023-02-22T09:32:50.282Z,21.84
2023-02-22T09:33:50.056Z,22.22
2023-02-22T09:34:50.045Z,22.56
2023-02-22T09:35:50.146Z,22.65
2023-02-22T09:36:50.032Z,23.16
2023-02-22T09:37:50.021Z,23.71
2023-02-22T09:38:50.055Z,23.91
2023-02-22T09:39:50.040Z,24.46
2023-02-22T09:40:50.022Z,25.19
2023-02-22T09:41:50.007Z,26.04
2023-02-22T09:42:49.987Z,27.34
2023-02-22T09:43:49.989Z,28.59
2023-02-22T09:44:49.980Z,29.81
2023-02-22T09:45:50.034Z,30.26
2023-02-22T09:46:49.964Z,29.99
2023-02-22T09:47:50.026Z,29.12
2023-02-22T09:48:49.957Z,28.35
2023-02-22T09:49:49.941Z,27.37
2023-02-22T09:50:49.939Z,26.89
2023-02-22T09:51:49.937Z,26.76
2023-02-22T09:52:50.000Z,26.70
2023-02-22T09:53:49.962Z,26.89
2023-02-22T09:54:49.990Z,26.64
2023-02-22T09:55:49.913Z,26.64
2023-02-22T09:56:49.908Z,26.61
2023-02-22T09:57:49.903Z,26.42
2023-02-22T09:58:49.898Z,26.41
2023-02-22T09:59:49.892Z,27.00
2023-02-22T10:00:49.894Z,27.66
2023-02-22T10:01:49.883Z,28.43
2023-02-22T10:02:49.934Z,29.27
2023-02-22T10:03:49.934Z,29.32
2023-02-22T10:04:49.872Z,29.02
2023-02-22T10:05:49.865Z,28.35
2023-02-22T10:06:49.888Z,27.79
2023-02-22T10:07:49.895Z,27.45
2023-02-22T10:08:49.858Z,27.16
2023-02-22T10:09:49.877Z,27.35
2023-02-22T10:10:49.870Z,27.33
2023-02-22T10:11:49.850Z,27.37
2023-02-22T10:12:50.290Z,27.38
2023-02-22T10:13:49.832Z,27.20
2023-02-22T10:14:49.836Z,27.04
2023-02-22T10:15:49.833Z,26.96
2023-02-22T10:16:49.908Z,26.89
2023-02-22T10:17:49.821Z,26.82
2023-02-22T10:18:49.818Z,27.23
2023-02-22T10:19:49.818Z,28.47
2023-02-22T10:20:49.818Z,29.46
2023-02-22T10:21:49.856Z,30.39
2023-02-22T10:22:49.804Z,30.40
2023-02-22T10:23:49.798Z,30.11
2023-02-22T10:24:49.806Z,29.62
2023-02-22T10:25:49.800Z,29.12
2023-02-22T10:26:49.807Z,28.75
2023-02-22T10:27:49.796Z,28.35
2023-02-22T10:28:49.788Z,28.13
2023-02-22T10:29:49.780Z,27.90
2023-02-22T10:30:49.813Z,28.09
2023-02-22T10:31:49.955Z,28.35
2023-02-22T10:32:49.774Z,28.53
2023-02-22T10:33:49.771Z,28.59
2023-02-22T10:34:49.767Z,28.78
2023-02-22T10:35:49.764Z,28.82
2023-02-22T10:36:49.763Z,28.89
2023-02-22T10:37:49.812Z,29.18
2023-02-22T10:38:49.762Z,29.95
2023-02-22T10:39:49.885Z,30.38
2023-02-22T10:40:49.821Z,30.67
2023-02-22T10:41:49.747Z,30.46
2023-02-22T10:42:49.799Z,30.43
2023-02-22T10:43:49.768Z,30.55
2023-02-22T10:44:49.744Z,30.55
2023-02-22T10:45:49.805Z,30.38
2023-02-22T10:46:49.755Z,30.08
2023-02-22T10:47:49.734Z,29.87
2023-02-22T10:48:49.738Z,29.55
2023-02-22T10:49:49.786Z,29.18
2023-02-22T10:50:49.746Z,28.87
2023-02-22T10:51:49.729Z,28.59
2023-02-22T10:52:49.731Z,28.31
2023-02-22T10:53:49.716Z,27.94
2023-02-22T10:54:49.719Z,27.43
2023-02-22T10:55:49.741Z,27.15
2023-02-22T10:56:49.716Z,26.92
2023-02-22T10:57:49.709Z,27.03
2023-02-22T10:58:49.727Z,27.25
2023-02-22T10:59:49.698Z,27.11
2023-02-22T11:00:49.699Z,27.05
2023-02-22T11:01:49.714Z,27.07
2023-02-22T11:02:49.692Z,27.28
2023-02-22T11:03:49.695Z,27.44
2023-02-22T11:04:49.849Z,27.38
2023-02-22T11:05:49.737Z,27.41
2023-02-22T11:06:49.681Z,27.44
2023-02-22T11:07:49.672Z,27.34
2023-02-22T11:08:49.714Z,27.25
2023-02-22T11:09:49.662Z,27.20
2023-02-22T11:10:49.660Z,27.11
2023-02-22T11:11:49.712Z,27.05
2023-02-22T11:12:49.696Z,27.08
2023-02-22T11:13:49.649Z,26.98
2023-02-22T11:14:49.676Z,27.03
2023-02-22T11:15:49.639Z,26.88
2023-02-22T11:16:49.698Z,26.74
2023-02-22T11:17:49.630Z,26.68
2023-02-22T11:18:49.630Z,26.44
2023-02-22T11:19:49.631Z,26.22
2023-02-22T11:20:49.667Z,25.98
2023-02-22T11:21:49.609Z,25.86
2023-02-22T11:22:49.644Z,25.83
2023-02-22T11:23:49.606Z,25.83
2023-02-22T11:24:49.616Z,25.40
2023-02-22T11:25:49.600Z,25.36
2023-02-22T11:26:49.586Z,25.22
2023-02-22T11:27:49.594Z,25.09
2023-02-22T11:28:49.710Z,24.99
2023-02-22T11:29:49.574Z,24.82
2023-02-22T11:30:49.711Z,24.92
2023-02-22T11:31:49.783Z,24.97
2023-02-22T11:32:49.556Z,25.19
2023-02-22T11:33:49.550Z,25.37
2023-02-22T11:34:52.810Z,25.39
2023-02-22T11:35:49.539Z,25.49
2023-02-22T11:36:49.537Z,25.68
2023-02-22T11:37:49.533Z,25.92
2023-02-22T11:38:49.517Z,26.13
2023-02-22T11:39:49.509Z,26.39
2023-02-22T11:40:49.509Z,26.64
2023-02-22T11:41:49.503Z,27.04
2023-02-22T11:42:49.529Z,27.34
2023-02-22T11:43:49.498Z,27.19
2023-02-22T11:44:49.481Z,27.03
2023-02-22T11:45:57.537Z,26.74
2023-02-22T11:46:49.540Z,26.88
2023-02-22T11:47:49.472Z,26.79
2023-02-22T11:48:49.463Z,27.10
2023-02-22T11:49:49.454Z,27.19
2023-02-22T11:50:49.453Z,27.43
2023-02-22T11:51:49.480Z,27.93
2023-02-22T11:52:49.438Z,28.34
2023-02-22T11:53:49.436Z,28.74
2023-02-22T11:54:49.430Z,29.07
2023-02-22T11:55:49.425Z,29.42
2023-02-22T11:56:49.429Z,29.79
2023-02-22T11:57:49.425Z,30.02
2023-02-22T11:58:49.412Z,30.14
2023-02-22T11:59:49.416Z,30.43
2023-02-22T12:00:49.410Z,30.74
2023-02-22T12:01:49.409Z,30.49
2023-02-22T12:02:56.911Z,30.27
2023-02-22T12:03:49.508Z,30.08
2023-02-22T12:04:49.716Z,30.01
2023-02-22T12:05:49.400Z,29.98
2023-02-22T12:06:49.390Z,30.01
2023-02-22T12:07:49.395Z,29.98
2023-02-22T12:08:49.380Z,29.89
2023-02-22T12:09:49.384Z,29.80
2023-02-22T12:10:49.370Z,29.73
2023-02-22T12:11:49.365Z,29.42
2023-02-22T12:12:49.411Z,28.92
2023-02-22T12:13:49.359Z,28.78
2023-02-22T12:14:49.408Z,28.70
2023-02-22T12:15:49.370Z,28.75
2023-02-22T12:16:49.343Z,28.78
2023-02-22T12:17:59.318Z,28.49
2023-02-22T12:18:49.343Z,28.49
2023-02-22T12:19:49.335Z,28.53
2023-02-22T12:20:49.328Z,28.46
2023-02-22T12:21:49.325Z,28.57
2023-02-22T12:22:49.310Z,28.77
2023-02-22T12:23:49.312Z,29.03
2023-02-22T12:24:51.600Z,29.16
2023-02-22T12:25:49.302Z,29.10
2023-02-22T12:26:49.295Z,29.31
2023-02-22T12:27:49.298Z,29.57
2023-02-22T12:28:49.289Z,29.68
2023-02-22T12:29:49.278Z,29.71
2023-02-22T12:30:49.394Z,29.76
2023-02-22T12:31:49.427Z,29.52
2023-02-22T12:32:49.389Z,29.67
2023-02-22T12:33:49.280Z,29.92
2023-02-22T12:34:49.263Z,30.08
2023-02-22T12:35:49.271Z,30.27
2023-02-22T12:36:49.244Z,30.16
2023-02-22T12:37:49.246Z,30.01
2023-02-22T12:38:49.322Z,30.21
2023-02-22T12:39:53.847Z,30.35
2023-02-22T12:40:49.223Z,30.46
2023-02-22T12:41:49.222Z,30.35
2023-02-22T12:42:49.208Z,30.16
2023-02-22T12:43:49.205Z,30.14
2023-02-22T12:44:49.201Z,30.08
2023-02-22T12:45:49.224Z,30.24
2023-02-22T12:46:49.224Z,30.51
2023-02-22T12:47:49.185Z,30.67
2023-02-22T12:48:49.186Z,30.89
2023-02-22T12:49:49.182Z,31.02
2023-02-22T12:50:49.173Z,31.02
2023-02-22T12:51:49.155Z,30.95
2023-02-22T12:52:49.161Z,30.78
2023-02-22T12:53:49.152Z,30.70
2023-02-22T12:54:49.156Z,30.69
2023-02-22T12:55:49.134Z,30.76
2023-02-22T12:56:49.132Z,30.74
2023-02-22T12:57:49.136Z,30.71
2023-02-22T12:58:49.127Z,30.76
2023-02-22T12:59:49.108Z,30.76
2023-02-22T13:00:49.133Z,30.74
2023-02-22T13:01:49.128Z,30.65
2023-02-22T13:02:49.091Z,30.76
2023-02-22T13:03:49.082Z,30.80
2023-02-22T13:04:49.072Z,30.65
2023-02-22T13:05:49.072Z,30.58
2023-02-22T13:06:49.075Z,30.59
2023-02-22T13:07:49.056Z,30.61